Latest Coastal Weather Observations for Red Rocks Point

IDW60701

Issued at 8:02 pm WST Thursday 30 July 2015 (issued every 10 minutes, with the page automatically refreshed every 10 minutes)

About coastal observations | Map of coastal stations | Coastal observations for WA | Marine services | Other Formats
Station Details ID: 011053 Name: RED ROCKS POINT Lat: -32.20 Lon: 127.53 Height: 3.1 m
Data from the previous 72 hours. | See also: Recent months at Red Rocks Point
Date/Time
WST
Temp

°C
Wind Pressure Rain
since 9am
mm
Weather Cloud Vis
km
Sea
Height
m
Swell
Dir
 
Speed
knots
Gust
knots
hPa Trend Height
m
Period
s
Dir
30/08:00pm 14.8 E 8 10 1023.6 - 0.0 - - - - - - -
30/07:30pm 14.9 E 10 12 1023.0 - 0.0 - - - - - - -
30/07:00pm 15.0 E 11 14 1022.8 - 0.0 - - - - - - -
30/06:30pm 14.9 ESE 11 13 1023.0 - 0.0 - - - - - - -
30/06:00pm 14.8 S 7 8 1023.3 - 0.0 - - - - - - -
30/05:30pm 14.8 S 7 9 1023.1 - 0.0 - - - - - - -
30/05:00pm 14.8 SSW 6 7 1022.9 - 0.0 - - - - - - -
30/04:30pm 15.3 SSW 6 8 1022.9 - 0.0 - - - - - - -
30/04:00pm 15.9 S 7 8 1022.4 - 0.0 - - - - - - -
30/03:00pm 17.0 S 8 10 1022.1 - 0.0 - - - - - - -
30/02:30pm 17.5 S 8 11 1021.9 - 0.0 - - - - - - -
30/02:00pm 18.0 S 8 10 1021.8 - 0.0 - - - - - - -
30/01:30pm 18.2 S 8 9 1022.2 - 0.0 - - - - - - -
30/01:00pm 18.9 SSW 7 9 1022.0 - 0.0 - - - - - - -
30/12:30pm 19.3 SW 7 10 1022.6 - 0.0 - - - - - - -
30/12:00pm 19.3 WSW 7 9 1022.7 - 0.0 - - - - - - -
30/11:30am 19.0 WSW 8 10 1022.9 - 0.0 - - - - - - -
30/11:00am 18.6 WSW 8 11 1023.3 - 0.0 - - - - - - -
30/10:30am 17.9 WSW 9 12 1023.4 - 0.0 - - - - - - -
30/10:00am 17.5 WSW 9 13 1023.4 - 0.0 - - - - - - -
30/09:30am 16.6 WSW 8 12 1023.3 - 0.0 - - - - - - -
30/09:00am 15.1 WSW 7 9 1023.1 - 0.0 - - - - - - -
30/08:30am 15.0 W 6 9 1022.8 - 0.0 - - - - - - -
30/08:00am 13.7 WNW 6 8 1022.6 - 0.0 - - - - - - -
30/07:30am 12.2 WNW 7 8 1022.3 - 0.0 - - - - - - -
30/07:00am 11.6 WNW 7 9 1021.9 - 0.0 - - - - - - -
30/06:30am 11.2 WNW 8 9 1021.3 - 0.0 - - - - - - -
30/06:00am 11.1 WNW 7 9 1020.8 - 0.0 - - - - - - -
30/05:30am 10.9 WNW 8 9 1020.4 - 0.0 - - - - - - -
30/05:00am 10.8 WNW 8 9 1020.0 - 0.0 - - - - - - -
30/04:30am 11.2 WNW 8 9 1019.7 - 0.0 - - - - - - -
30/04:00am 11.5 WNW 7 8 1019.7 - 0.0 - - - - - - -
30/03:30am 11.2 NW 8 9 1019.6 - 0.0 - - - - - - -
30/03:00am 11.2 NW 8 9 1019.8 - 0.0 - - - - - - -
30/02:30am 11.0 WNW 8 9 1019.2 - 0.0 - - - - - - -
30/02:00am 11.3 WNW 8 9 1019.4 - 0.0 - - - - - - -
30/01:30am 11.1 WNW 8 9 1019.5 - 0.0 - - - - - - -
30/01:00am 11.4 NNW 8 9 1018.7 - 0.0 - - - - - - -
30/12:30am 11.4 NW 7 8 1019.2 - 0.0 - - - - - - -
30/12:00am 11.7 NNW 6 9 1018.9 - 0.0 - - - - - - -
 
Date/Time
WST
Temp

°C
Wind Pressure Rain
since 9am
mm
Weather Cloud Vis
km
Sea
Height
m
Swell
Dir
 
Speed
knots
Gust
knots
hPa Trend Height
m
Period
s
Dir
29/11:30pm 11.6 W 4 5 1019.2 - 0.0 - - - - - - -
29/11:00pm 11.6 W 4 5 1019.1 - 0.0 - - - - - - -
29/10:30pm 11.8 WNW 5 6 1019.3 - 0.0 - - - - - - -
29/10:00pm 11.6 NW 5 6 1019.1 - 0.0 - - - - - - -
29/09:30pm 11.5 NW 6 7 1019.8 - 0.0 - - - - - - -
29/09:00pm 12.1 WNW 6 6 1020.0 - 0.0 - - - - - - -
29/08:30pm 12.3 NW 6 6 1020.2 - 0.0 - - - - - - -
29/08:00pm 12.3 WNW 5 5 1019.7 - 0.0 - - - - - - -
29/07:30pm 13.2 WSW 5 5 1019.6 - 0.0 - - - - - - -
29/07:00pm 13.7 WSW 5 5 1019.3 - 0.0 - - - - - - -
29/06:30pm 14.2 WSW 4 6 1018.8 - 0.0 - - - - - - -
29/06:00pm 14.5 WSW 5 6 1018.3 - 0.0 - - - - - - -
29/05:30pm 14.9 WSW 6 8 1018.1 - 0.0 - - - - - - -
29/05:00pm 15.3 WSW 7 9 1017.7 - 0.0 - - - - - - -
29/04:30pm 16.3 WSW 7 8 1017.4 - 0.0 - - - - - - -
29/04:00pm 17.4 WSW 8 10 1017.1 - 0.0 - - - - - - -
29/03:30pm 18.1 WSW 9 12 1017.0 - 0.0 - - - - - - -
29/03:00pm 18.7 WSW 9 12 1016.9 - 0.0 - - - - - - -
29/02:30pm 19.1 WSW 9 15 1016.7 - 0.0 - - - - - - -
29/02:00pm 19.3 SW 10 14 1016.6 - 0.0 - - - - - - -
29/01:30pm 20.1 SW 11 16 1016.5 - 0.0 - - - - - - -
29/01:00pm 24.2 WNW 10 18 1016.4 - 0.0 - - - - - - -
29/12:30pm 22.5 NW 11 19 1016.8 - 0.0 - - - - - - -
29/12:00pm 22.2 NW 12 19 1017.2 - 0.0 - - - - - - -
29/11:30am 23.0 NW 11 18 1017.3 - 0.0 - - - - - - -
29/11:00am 22.8 NW 14 21 1017.7 - 0.0 - - - - - - -
29/10:30am 22.1 NNW 11 16 1018.2 - 0.0 - - - - - - -
29/10:00am 21.0 NNW 12 19 1018.8 - 0.0 - - - - - - -
29/09:30am 20.4 NNW 13 20 1019.1 - 0.0 - - - - - - -
29/09:00am 19.6 N 11 16 1019.3 - 0.0 - - - - - - -
29/08:30am 17.9 N 9 13 1019.5 - 0.0 - - - - - - -
29/08:00am 16.0 N 7 11 1019.5 - 0.0 - - - - - - -
29/07:30am 15.4 NNE 7 9 1019.9 - 0.0 - - - - - - -
29/07:00am 14.1 NNE 8 11 1019.8 - 0.0 - - - - - - -
29/06:30am 14.2 N 6 8 1020.3 - 0.0 - - - - - - -
29/06:00am 15.5 N 7 11 1020.2 - 0.0 - - - - - - -
29/05:30am 15.3 N 9 13 1019.7 - 0.0 - - - - - - -
29/05:00am 15.1 N 9 12 1019.8 - 0.0 - - - - - - -
29/04:30am 14.7 N 7 11 1019.8 - 0.0 - - - - - - -
29/04:00am 14.9 N 7 9 1020.0 - 0.0 - - - - - - -
29/03:30am 15.0 N 8 13 1020.2 - 0.0 - - - - - - -
29/03:00am 14.7 N 8 11 1020.3 - 0.0 - - - - - - -
29/02:30am 14.0 N 7 9 1021.0 - 0.0 - - - - - - -
29/02:00am 13.5 N 6 8 1021.2 - 0.0 - - - - - - -
29/01:30am 12.7 N 5 6 1021.5 - 0.0 - - - - - - -
29/01:00am 12.7 N 4 5 1022.1 - 0.0 - - - - - - -
29/12:30am 12.9 N 4 6 1021.9 - 0.0 - - - - - - -
29/12:00am 13.3 N 7 10 1021.8 - 0.0 - - - - - - -
 
Date/Time
WST
Temp

°C
Wind Pressure Rain
since 9am
mm
Weather Cloud Vis
km
Sea
Height
m
Swell
Dir
 
Speed
knots
Gust
knots
hPa Trend Height
m
Period
s
Dir
28/11:30pm 13.3 NNE 8 11 1022.1 - 0.0 - - - - - - -
28/11:00pm 13.4 NNE 11 14 1022.1 - 0.0 - - - - - - -
28/10:30pm 13.0 NNE 8 10 1023.6 - 0.0 - - - - - - -
28/10:00pm 13.2 NE 8 11 1024.1 - 0.0 - - - - - - -
28/09:30pm 13.8 NE 10 14 1024.0 - 0.0 - - - - - - -
28/09:00pm 13.5 NE 12 14 1024.2 - 0.0 - - - - - - -
28/08:30pm 12.9 NE 8 9 1024.8 - 0.0 - - - - - - -
28/08:00pm 13.0 NE 6 8 1025.1 - 0.0 - - - - - - -
28/07:30pm 13.8 NE 7 8 1025.4 - 0.0 - - - - - - -
28/07:00pm 13.7 NE 8 10 1024.8 - 0.0 - - - - - - -
28/06:30pm 12.8 NE 7 8 1025.4 - 0.0 - - - - - - -
28/06:00pm 11.9 NNW 2 7 1025.2 - 0.0 - - - - - - -
28/05:30pm 12.7 CALM 0 0 1025.4 - 0.0 - - - - - - -
28/05:00pm 14.5 NW 4 5 1025.7 - 0.0 - - - - - - -
28/04:30pm 15.5 NE 7 10 1024.3 - 0.0 - - - - - - -
28/04:00pm 16.3 NE 8 11 1024.4 - 0.0 - - - - - - -
28/03:30pm 16.6 NE 10 13 1024.6 - 0.0 - - - - - - -
28/03:00pm 17.0 NE 11 16 1025.3 - 0.0 - - - - - - -
28/02:30pm 17.4 NNE 10 15 1025.9 - 0.0 - - - - - - -
28/02:00pm 17.1 NNE 10 15 1026.3 - 0.0 - - - - - - -
28/01:30pm 17.4 NNE 10 14 1027.1 - 0.0 - - - - - - -
28/01:00pm 17.0 N 10 16 1027.5 - 0.0 - - - - - - -
28/12:30pm 16.5 N 10 15 1028.5 - 0.0 - - - - - - -
28/12:00pm 16.8 N 10 15 1029.0 - 0.0 - - - - - - -
28/11:30am 16.6 N 8 14 1029.7 - 0.0 - - - - - - -
28/11:00am 16.2 N 12 16 1030.8 - 0.0 - - - - - - -
28/10:30am 15.0 N 11 14 1031.7 - 0.0 - - - - - - -
28/10:00am 12.6 N 9 14 1032.6 - 0.0 - - - - - - -
28/09:30am 11.5 N 9 13 1032.6 - 0.0 - - - - - - -
28/09:00am 9.4 N 9 14 1033.3 - 0.0 - - - - - - -
28/08:30am 8.7 N 10 15 1033.2 - 0.0 - - - - - - -
28/08:00am 7.4 NNE 10 13 1033.3 - 0.0 - - - - - - -
28/07:30am 6.5 N 10 13 1033.6 - 0.0 - - - - - - -
28/07:00am 6.7 N 10 14 1033.3 - 0.0 - - - - - - -
28/06:30am 6.4 NNE 11 14 1032.7 - 0.0 - - - - - - -
28/06:00am 6.5 NNE 11 15 1032.9 - 0.0 - - - - - - -
28/05:30am 6.5 NNE 10 13 1033.0 - 0.0 - - - - - - -
28/05:00am 6.4 N 9 13 1032.9 - 0.0 - - - - - - -
28/04:30am 6.6 NNE 10 14 1032.5 - 0.0 - - - - - - -
28/04:00am 6.6 NNE 10 13 1032.5 - 0.0 - - - - - - -
28/03:30am 6.4 NNE 10 12 1032.6 - 0.0 - - - - - - -
28/03:00am 6.9 NNE 11 13 1032.7 - 0.0 - - - - - - -
28/02:30am 7.1 NNE 11 16 1032.4 - 0.0 - - - - - - -
28/02:00am 6.5 NNE 12 15 1032.6 - 0.0 - - - - - - -
28/01:30am 6.4 NNE 12 15 1032.8 - 0.0 - - - - - - -
28/01:00am 6.6 N 11 14 1033.1 - 0.0 - - - - - - -
28/12:30am 7.1 NNE 10 13 1033.5 - 0.0 - - - - - - -
28/12:00am 7.2 N 9 12 1034.1 - 0.0 - - - - - - -
 
Date/Time
WST
Temp

°C
Wind Pressure Rain
since 9am
mm
Weather Cloud Vis
km
Sea
Height
m
Swell
Dir
 
Speed
knots
Gust
knots
hPa Trend Height
m
Period
s
Dir
27/11:30pm 7.7 NNE 10 13 1034.5 - 0.0 - - - - - - -
27/11:00pm 7.3 NNE 6 10 1035.1 - 0.0 - - - - - - -
27/10:30pm 8.4 NNE 7 9 1035.5 - 0.0 - - - - - - -
27/10:00pm 8.2 NNE 9 13 1033.9 - 0.0 - - - - - - -
27/09:30pm 8.5 NNE 8 11 1033.7 - 0.0 - - - - - - -
27/09:00pm 8.5 NE 7 9 1033.8 - 0.0 - - - - - - -
27/08:30pm 9.2 NNE 7 9 1033.8 - 0.0 - - - - - - -

Other Formats:

Comma delimited format used in spreadsheet applications
http://www.bom.gov.au/fwo/IDW60701/IDW60701.94644.axf

JavaScript Object Notation format (JSON) in row-major order
http://www.bom.gov.au/fwo/IDW60701/IDW60701.94644.json